createdAt,value
2018-12-06T00:03:09.179Z,21.31
2018-12-06T00:08:17.200Z,21.30
2018-12-06T00:13:20.616Z,21.31
2018-12-06T00:18:24.081Z,21.30
2018-12-06T00:23:27.403Z,21.32
2018-12-06T00:28:30.800Z,21.32
2018-12-06T00:33:34.172Z,21.32
2018-12-06T00:38:37.629Z,21.31
2018-12-06T00:43:41.093Z,21.31
2018-12-06T00:48:44.572Z,21.31
2018-12-06T00:53:48.073Z,21.32
2018-12-06T00:58:51.492Z,21.32
2018-12-06T01:03:54.945Z,21.30
2018-12-06T01:08:58.381Z,21.27
2018-12-06T01:14:01.826Z,21.25
2018-12-06T01:19:08.296Z,21.22
2018-12-06T01:24:11.688Z,21.16
2018-12-06T01:29:15.081Z,21.13
2018-12-06T01:34:18.544Z,21.11
2018-12-06T01:39:21.996Z,21.07
2018-12-06T01:44:25.539Z,21.05
2018-12-06T01:49:29.137Z,21.03
2018-12-06T01:54:32.672Z,21.02
2018-12-06T01:59:36.101Z,20.99
2018-12-06T02:04:39.467Z,20.96
2018-12-06T02:09:42.900Z,20.93
2018-12-06T02:14:46.303Z,20.91
2018-12-06T02:19:49.693Z,20.88
2018-12-06T02:24:53.125Z,20.85
2018-12-06T02:29:56.457Z,20.84
2018-12-06T02:34:59.933Z,20.82
2018-12-06T02:40:03.844Z,20.80
2018-12-06T02:45:07.410Z,20.78
2018-12-06T02:50:10.840Z,20.77
2018-12-06T02:55:14.386Z,20.75
2018-12-06T03:00:17.827Z,20.75
2018-12-06T03:05:21.192Z,20.72
2018-12-06T03:10:24.566Z,20.71
2018-12-06T03:15:28.037Z,20.69
2018-12-06T03:20:31.623Z,20.66
2018-12-06T03:25:35.011Z,20.64
2018-12-06T03:30:38.487Z,20.62
2018-12-06T03:35:41.902Z,20.59
2018-12-06T03:40:45.346Z,20.58
2018-12-06T03:45:48.779Z,20.55
2018-12-06T03:50:52.155Z,20.52
2018-12-06T03:55:55.492Z,20.49
2018-12-06T04:00:58.861Z,20.48
2018-12-06T04:06:02.349Z,20.49
2018-12-06T04:11:05.724Z,20.48
2018-12-06T04:16:09.089Z,20.47
2018-12-06T04:21:12.466Z,20.46
2018-12-06T04:26:15.917Z,20.45
2018-12-06T04:31:19.336Z,20.45
2018-12-06T04:36:22.686Z,20.44
2018-12-06T04:41:26.117Z,20.44
2018-12-06T04:46:29.598Z,20.44
2018-12-06T04:51:33.074Z,20.42
2018-12-06T04:56:36.553Z,20.37
2018-12-06T05:01:40.041Z,20.34
2018-12-06T05:06:43.503Z,20.31
2018-12-06T05:11:47.923Z,20.30
2018-12-06T05:16:51.423Z,20.28
2018-12-06T05:21:54.828Z,20.26
2018-12-06T05:26:58.216Z,20.25
2018-12-06T05:32:01.852Z,20.24
2018-12-06T05:37:05.357Z,20.22
2018-12-06T05:42:08.864Z,20.21
2018-12-06T05:47:12.355Z,20.21
2018-12-06T05:52:15.803Z,20.20
2018-12-06T05:57:19.258Z,20.19
2018-12-06T06:02:29.034Z,20.19
2018-12-06T06:07:32.419Z,20.17
2018-12-06T06:12:35.935Z,20.17
2018-12-06T06:17:39.389Z,20.16
2018-12-06T06:22:42.766Z,20.08
2018-12-06T06:27:46.162Z,20.14
2018-12-06T06:32:49.566Z,20.13
2018-12-06T06:37:52.939Z,20.12
2018-12-06T06:42:56.328Z,20.11
2018-12-06T06:47:59.861Z,20.10
2018-12-06T06:53:03.220Z,20.08
2018-12-06T06:58:06.622Z,20.08
2018-12-06T07:03:16.806Z,20.07
2018-12-06T07:08:20.290Z,20.05
2018-12-06T07:13:23.704Z,20.05
2018-12-06T07:18:27.089Z,20.04
2018-12-06T07:23:30.521Z,20.03
2018-12-06T07:28:33.946Z,20.01
2018-12-06T07:33:37.540Z,20.01
2018-12-06T07:38:40.976Z,20.00
2018-12-06T07:43:44.304Z,18.10
2018-12-06T07:48:47.663Z,14.75
2018-12-06T07:53:51.146Z,14.28
2018-12-06T07:58:54.535Z,13.91
2018-12-06T08:03:58.034Z,13.59
2018-12-06T08:09:01.423Z,13.31
2018-12-06T08:14:04.947Z,13.25
2018-12-06T08:19:08.302Z,13.00
2018-12-06T08:24:11.667Z,12.80
2018-12-06T08:29:15.003Z,12.66
2018-12-06T08:34:18.323Z,15.47
2018-12-06T08:44:31.246Z,18.47
2018-12-06T08:49:34.623Z,18.89
2018-12-06T08:54:37.942Z,19.33
2018-12-06T08:59:41.371Z,19.50
2018-12-06T09:04:44.717Z,19.55
2018-12-06T09:09:48.188Z,19.66
2018-12-06T09:14:51.551Z,19.79
2018-12-06T09:19:54.971Z,20.02
2018-12-06T09:24:58.377Z,20.31
2018-12-06T09:30:01.847Z,20.36
2018-12-06T09:35:06.114Z,20.39
2018-12-06T09:40:10.361Z,20.37
2018-12-06T09:45:14.109Z,20.43
2018-12-06T09:50:17.532Z,20.44
2018-12-06T09:55:20.897Z,20.47
2018-12-06T10:00:24.367Z,20.44
2018-12-06T10:05:27.690Z,20.51
2018-12-06T10:10:31.140Z,20.58
2018-12-06T10:15:34.585Z,20.56
2018-12-06T10:20:37.971Z,20.55
2018-12-06T10:25:41.415Z,20.43
2018-12-06T10:30:44.766Z,20.42
2018-12-06T10:35:48.214Z,20.39
2018-12-06T10:40:51.603Z,20.42
2018-12-06T10:45:55.014Z,20.47
2018-12-06T10:51:09.748Z,20.49
2018-12-06T10:56:13.131Z,20.55
2018-12-06T11:01:18.915Z,20.54
2018-12-06T11:06:22.430Z,20.65
2018-12-06T11:11:26.574Z,20.75
2018-12-06T11:16:30.082Z,20.53
2018-12-06T11:21:33.484Z,20.50
2018-12-06T11:26:37.120Z,20.51
2018-12-06T11:31:40.571Z,20.52
2018-12-06T11:36:44.071Z,20.50
2018-12-06T11:41:47.454Z,20.51
2018-12-06T11:46:50.897Z,20.51
2018-12-06T11:51:54.355Z,20.49
2018-12-06T11:56:57.788Z,20.45
2018-12-06T12:02:01.338Z,20.49
2018-12-06T12:07:04.826Z,20.52
2018-12-06T12:12:08.206Z,20.57
2018-12-06T12:17:11.651Z,20.82
2018-12-06T12:22:15.054Z,20.83
2018-12-06T12:27:18.545Z,20.86
2018-12-06T12:32:22.107Z,20.80
2018-12-06T12:37:25.602Z,20.78
2018-12-06T12:42:29.082Z,20.65
2018-12-06T12:47:32.615Z,20.58
2018-12-06T12:52:36.075Z,20.54
2018-12-06T12:57:39.479Z,20.47
2018-12-06T13:02:42.976Z,20.45
2018-12-06T13:07:46.495Z,20.52
2018-12-06T13:12:50.341Z,20.68
2018-12-06T13:17:53.723Z,20.77
2018-12-06T13:22:57.236Z,20.77
2018-12-06T13:28:00.756Z,20.76
2018-12-06T13:33:04.233Z,20.70
2018-12-06T13:38:07.824Z,20.65
2018-12-06T13:43:11.344Z,20.58
2018-12-06T13:48:14.872Z,20.54
2018-12-06T13:53:18.389Z,20.49
2018-12-06T13:58:21.824Z,20.49
2018-12-06T14:03:25.358Z,20.47
2018-12-06T14:08:28.807Z,20.54
2018-12-06T14:13:32.258Z,20.64
2018-12-06T14:18:35.688Z,20.79
2018-12-06T14:23:39.040Z,21.04
2018-12-06T14:28:42.402Z,21.14
2018-12-06T14:33:54.498Z,21.06
2018-12-06T14:38:57.931Z,21.05
2018-12-06T14:44:01.279Z,20.99
2018-12-06T14:49:04.772Z,20.93
2018-12-06T14:54:08.170Z,20.99
2018-12-06T14:59:11.515Z,20.88
2018-12-06T15:04:14.925Z,20.92
2018-12-06T15:09:18.495Z,20.90
2018-12-06T15:14:21.815Z,20.82
2018-12-06T15:19:25.205Z,20.59
2018-12-06T15:24:28.614Z,20.65
2018-12-06T15:29:32.037Z,20.67
2018-12-06T15:34:35.567Z,20.68
2018-12-06T15:39:38.924Z,20.67
2018-12-06T15:44:42.942Z,20.68
2018-12-06T15:49:46.267Z,20.68
2018-12-06T15:55:16.568Z,20.66
2018-12-06T16:00:20.008Z,20.55
2018-12-06T16:05:23.379Z,20.58
2018-12-06T16:10:26.999Z,20.48
2018-12-06T16:15:30.470Z,20.54
2018-12-06T16:20:33.854Z,20.54
2018-12-06T16:25:37.869Z,20.55
2018-12-06T16:30:41.272Z,20.66
2018-12-06T16:35:46.448Z,20.67
2018-12-06T16:40:49.934Z,20.77
2018-12-06T16:45:59.939Z,20.82
2018-12-06T16:51:03.299Z,20.97
2018-12-06T16:56:07.812Z,20.82
2018-12-06T17:01:11.319Z,20.81
2018-12-06T17:06:15.344Z,20.87
2018-12-06T17:11:18.701Z,21.19
2018-12-06T17:16:22.116Z,21.72
2018-12-06T17:21:25.471Z,21.81
2018-12-06T17:26:29.374Z,21.89
2018-12-06T17:31:32.689Z,22.03
2018-12-06T17:36:36.123Z,21.99
2018-12-06T17:41:39.484Z,22.00
2018-12-06T17:46:42.918Z,21.88
2018-12-06T17:51:46.423Z,21.95
2018-12-06T17:56:49.768Z,22.11
2018-12-06T18:01:53.082Z,21.86
2018-12-06T18:06:56.499Z,21.92
2018-12-06T18:11:59.851Z,21.82
2018-12-06T18:17:03.286Z,21.84
2018-12-06T18:22:06.716Z,21.92
2018-12-06T18:27:10.239Z,21.95
2018-12-06T18:32:13.607Z,22.14
2018-12-06T18:37:17.106Z,22.11
2018-12-06T18:42:20.459Z,22.03
2018-12-06T18:47:23.978Z,22.02
2018-12-06T18:52:27.375Z,21.98
2018-12-06T18:57:30.751Z,21.96
2018-12-06T19:02:34.178Z,22.00
2018-12-06T19:07:37.533Z,22.01
2018-12-06T19:12:40.842Z,22.04
2018-12-06T19:17:44.230Z,22.06
2018-12-06T19:22:47.563Z,22.16
2018-12-06T19:27:51.015Z,22.13
2018-12-06T19:37:58.867Z,22.08
2018-12-06T19:43:02.274Z,22.12
2018-12-06T19:48:05.634Z,22.13
2018-12-06T19:53:08.960Z,22.09
2018-12-06T19:58:12.299Z,22.11
2018-12-06T20:03:15.630Z,22.12
2018-12-06T20:08:19.309Z,22.09
2018-12-06T20:13:22.618Z,22.01
2018-12-06T20:18:26.027Z,21.99
2018-12-06T20:23:29.455Z,21.85
2018-12-06T20:28:32.864Z,21.79
2018-12-06T20:33:36.199Z,21.72
2018-12-06T20:38:39.536Z,21.68
2018-12-06T20:43:42.961Z,21.61
2018-12-06T20:48:46.363Z,21.56
2018-12-06T20:53:49.855Z,21.61
2018-12-06T20:58:53.410Z,21.69
2018-12-06T21:03:56.852Z,21.61
2018-12-06T21:09:00.375Z,21.59
2018-12-06T21:14:03.871Z,21.62
2018-12-06T21:19:07.890Z,21.63
2018-12-06T21:24:11.470Z,21.62
2018-12-06T21:29:14.879Z,21.62
2018-12-06T21:34:18.278Z,21.59
2018-12-06T21:39:21.735Z,21.59
2018-12-06T21:44:25.096Z,21.59
2018-12-06T21:49:28.494Z,21.58
2018-12-06T21:54:31.859Z,21.56
2018-12-06T21:59:35.183Z,21.54
2018-12-06T22:04:38.526Z,21.55
2018-12-06T22:09:42.792Z,21.54
2018-12-06T22:14:46.243Z,21.52
2018-12-06T22:19:49.650Z,21.54
2018-12-06T22:24:53.331Z,21.53
2018-12-06T22:29:56.691Z,21.51
2018-12-06T22:35:00.113Z,21.51
2018-12-06T22:40:04.274Z,21.57
2018-12-06T22:46:11.979Z,21.61
2018-12-06T22:51:15.437Z,21.60
2018-12-06T22:56:18.818Z,21.63
2018-12-06T23:01:28.533Z,21.62
2018-12-06T23:06:32.168Z,21.63
2018-12-06T23:11:35.566Z,21.64
2018-12-06T23:16:39.085Z,21.65
2018-12-06T23:21:42.478Z,21.67
2018-12-06T23:26:45.834Z,21.66
2018-12-06T23:31:49.515Z,21.67
2018-12-06T23:36:52.942Z,21.65
2018-12-06T23:41:56.411Z,21.67
2018-12-06T23:47:00.228Z,21.68
2018-12-06T23:52:03.604Z,21.65
2018-12-06T23:57:07.164Z,21.70
